createdAt,value
2022-11-14T00:00:21.104Z,31.27
2022-11-14T00:03:08.537Z,28.27
2022-11-14T00:05:54.372Z,27.70
2022-11-14T00:08:40.058Z,27.15
2022-11-14T00:11:25.684Z,26.70
2022-11-14T00:14:11.734Z,26.05
2022-11-14T00:16:57.535Z,26.73
2022-11-14T00:19:43.388Z,31.92
2022-11-14T00:22:28.820Z,32.10
2022-11-14T00:25:14.298Z,30.00
2022-11-14T00:28:00.099Z,28.45
2022-11-14T00:30:49.286Z,27.33
2022-11-14T00:33:34.807Z,29.35
2022-11-14T00:36:20.463Z,31.42
2022-11-14T00:39:06.232Z,30.95
2022-11-14T00:41:52.077Z,28.25
2022-11-14T00:44:37.644Z,26.08
2022-11-14T00:47:23.213Z,27.60
2022-11-14T00:50:09.961Z,28.58
2022-11-14T00:52:55.733Z,27.80
2022-11-14T00:55:42.778Z,29.50
2022-11-14T00:58:28.643Z,30.95
2022-11-14T01:01:14.332Z,27.40
2022-11-14T01:03:59.845Z,28.58
2022-11-14T01:06:45.176Z,27.08
2022-11-14T01:09:30.824Z,25.67
2022-11-14T01:12:16.312Z,30.98
2022-11-14T01:15:02.131Z,33.75
2022-11-14T01:17:47.298Z,36.20
2022-11-14T01:20:32.965Z,37.78
2022-11-14T01:23:18.625Z,34.55
2022-11-14T01:26:09.210Z,36.60
2022-11-14T01:28:54.740Z,28.63
2022-11-14T01:31:40.271Z,27.42
2022-11-14T01:34:26.548Z,26.60
2022-11-14T01:37:12.174Z,26.00
2022-11-14T01:39:57.700Z,25.15
2022-11-14T01:42:43.486Z,25.23
2022-11-14T01:46:02.234Z,26.65
2022-11-14T01:48:53.262Z,29.92
2022-11-14T01:51:51.533Z,29.77
2022-11-14T01:54:41.600Z,31.02
2022-11-14T01:57:38.444Z,30.60
2022-11-14T02:00:24.296Z,27.40
2022-11-14T02:03:13.508Z,26.48
2022-11-14T02:06:00.505Z,30.20
2022-11-14T02:08:47.353Z,35.88
2022-11-14T02:11:36.615Z,33.97
2022-11-14T02:14:22.675Z,30.33
2022-11-14T02:17:28.382Z,30.45
2022-11-14T02:20:14.037Z,32.42
2022-11-14T02:22:59.675Z,33.30
2022-11-14T02:25:44.900Z,31.33
2022-11-14T02:28:30.651Z,30.25
2022-11-14T02:31:16.773Z,28.23
2022-11-14T02:34:02.064Z,28.05
2022-11-14T02:36:47.642Z,32.38
2022-11-14T02:39:33.134Z,33.70
2022-11-14T02:42:18.833Z,28.45
2022-11-14T02:45:04.668Z,27.13
2022-11-14T02:47:50.205Z,32.88
2022-11-14T02:50:35.540Z,26.30
2022-11-14T02:53:21.041Z,27.67
2022-11-14T02:56:07.025Z,27.00
2022-11-14T02:58:52.335Z,26.77
2022-11-14T03:01:37.773Z,27.80
2022-11-14T03:04:23.283Z,26.13
2022-11-14T03:07:08.910Z,26.45
2022-11-14T03:09:54.604Z,27.80
2022-11-14T03:12:40.531Z,31.85
2022-11-14T03:15:26.169Z,30.05
2022-11-14T03:18:11.913Z,28.38
2022-11-14T03:20:57.121Z,26.92
2022-11-14T03:23:43.559Z,29.55
2022-11-14T03:26:29.008Z,29.20
2022-11-14T03:29:14.247Z,29.80
2022-11-14T03:31:59.907Z,26.88
2022-11-14T03:34:45.430Z,25.50
2022-11-14T03:37:31.009Z,27.27
2022-11-14T03:40:16.885Z,26.52
2022-11-14T03:43:02.610Z,25.88
2022-11-14T03:45:48.705Z,27.33
2022-11-14T03:48:34.037Z,27.13
2022-11-14T03:51:19.603Z,27.50
2022-11-14T03:54:05.306Z,28.80
2022-11-14T03:56:50.598Z,30.27
2022-11-14T03:59:37.043Z,33.65
2022-11-14T04:02:22.566Z,34.15
2022-11-14T04:05:08.719Z,28.00
2022-11-14T04:07:54.368Z,27.20
2022-11-14T04:10:41.371Z,27.13
2022-11-14T04:13:27.057Z,25.42
2022-11-14T04:16:12.281Z,25.35
2022-11-14T04:18:57.694Z,25.23
2022-11-14T04:21:43.438Z,25.73
2022-11-14T04:24:29.046Z,26.35
2022-11-14T04:27:14.414Z,26.92
2022-11-14T04:30:00.691Z,24.92
2022-11-14T04:32:48.461Z,27.75
2022-11-14T04:35:33.819Z,26.55
2022-11-14T04:38:19.265Z,22.85
2022-11-14T04:41:05.158Z,26.27
2022-11-14T04:43:51.150Z,25.38
2022-11-14T04:46:36.912Z,26.50
2022-11-14T04:49:23.145Z,23.55
2022-11-14T04:52:08.466Z,23.73
2022-11-14T04:54:54.011Z,21.58
2022-11-14T04:57:39.744Z,23.48
2022-11-14T05:00:26.077Z,27.35
2022-11-14T05:03:11.651Z,25.88
2022-11-14T05:06:01.147Z,25.63
2022-11-14T05:08:46.602Z,25.00
2022-11-14T05:11:31.871Z,22.80
2022-11-14T05:14:17.392Z,27.00
2022-11-14T05:17:02.917Z,25.45
2022-11-14T05:19:48.387Z,24.02
2022-11-14T05:22:33.755Z,24.27
2022-11-14T05:25:19.313Z,22.33
2022-11-14T05:28:04.852Z,22.25
2022-11-14T05:30:50.538Z,21.23
2022-11-14T05:33:36.525Z,23.77
2022-11-14T05:36:22.258Z,24.20
2022-11-14T05:39:07.541Z,23.45
2022-11-14T05:41:53.251Z,22.63
2022-11-14T05:44:38.576Z,24.65
2022-11-14T05:47:24.273Z,20.77
2022-11-14T05:50:10.275Z,20.80
2022-11-14T05:52:56.774Z,20.15
2022-11-14T05:55:42.104Z,18.58
2022-11-14T05:58:28.345Z,20.77
2022-11-14T06:01:17.014Z,20.98
2022-11-14T06:04:05.430Z,27.83
2022-11-14T06:06:50.727Z,21.45
2022-11-14T06:09:36.430Z,20.30
2022-11-14T06:12:22.083Z,19.70
2022-11-14T06:15:07.928Z,20.55
2022-11-14T06:17:54.146Z,19.90
2022-11-14T06:20:39.470Z,20.50
2022-11-14T06:23:25.286Z,21.85
2022-11-14T06:26:27.391Z,19.35
2022-11-14T06:29:12.974Z,24.48
2022-11-14T06:31:58.680Z,21.27
2022-11-14T06:34:44.353Z,20.55
2022-11-14T06:37:33.550Z,26.73
2022-11-14T06:40:19.272Z,21.65
2022-11-14T06:43:04.808Z,22.85
2022-11-14T06:45:49.983Z,24.80
2022-11-14T06:48:36.301Z,24.63
2022-11-14T06:51:21.522Z,23.35
2022-11-14T06:54:07.037Z,23.80
2022-11-14T06:56:52.285Z,21.95
2022-11-14T06:59:37.829Z,23.45
2022-11-14T07:02:23.189Z,24.50
2022-11-14T07:05:08.948Z,24.67
2022-11-14T07:07:54.269Z,27.90
2022-11-14T07:10:40.545Z,26.58
2022-11-14T07:13:25.663Z,24.55
2022-11-14T07:16:11.377Z,24.42
2022-11-14T07:19:00.394Z,22.60
2022-11-14T07:21:46.025Z,24.48
2022-11-14T07:24:31.645Z,27.23
2022-11-14T07:27:17.002Z,25.33
2022-11-14T07:30:02.609Z,27.08
2022-11-14T07:32:55.471Z,24.33
2022-11-14T07:35:41.244Z,27.42
2022-11-14T07:38:26.720Z,24.15
2022-11-14T07:41:14.759Z,23.75
2022-11-14T07:44:00.303Z,21.15
2022-11-14T07:46:45.999Z,20.85
2022-11-14T07:49:31.302Z,22.48
2022-11-14T07:52:16.862Z,22.38
2022-11-14T07:55:02.708Z,19.75
2022-11-14T07:57:49.591Z,21.70
2022-11-14T08:00:35.423Z,21.73
2022-11-14T08:03:21.284Z,23.08
2022-11-14T08:06:12.578Z,20.55
2022-11-14T08:08:58.176Z,17.38
2022-11-14T08:11:49.798Z,18.08
2022-11-14T08:14:35.519Z,21.98
2022-11-14T08:17:22.116Z,19.17
2022-11-14T08:20:08.942Z,19.02
2022-11-14T08:22:55.138Z,19.10
2022-11-14T08:25:41.795Z,18.60
2022-11-14T08:28:28.126Z,23.98
2022-11-14T08:31:14.300Z,23.80
2022-11-14T08:33:59.644Z,22.00
2022-11-14T08:36:45.365Z,21.05
2022-11-14T08:39:30.967Z,21.20
2022-11-14T08:42:16.549Z,22.13
2022-11-14T08:45:01.876Z,23.73
2022-11-14T08:47:53.728Z,23.38
2022-11-14T08:50:39.334Z,19.50
2022-11-14T08:53:25.037Z,20.73
2022-11-14T08:56:11.189Z,18.95
2022-11-14T08:58:56.783Z,20.95
2022-11-14T09:01:43.087Z,17.73
2022-11-14T09:04:28.771Z,18.40
2022-11-14T09:07:14.500Z,19.05
2022-11-14T09:10:00.164Z,19.15
2022-11-14T09:12:45.790Z,18.65
2022-11-14T09:15:31.389Z,19.10
2022-11-14T09:18:16.947Z,16.65
2022-11-14T09:21:08.924Z,17.50
2022-11-14T09:23:57.485Z,18.45
2022-11-14T09:26:45.997Z,19.73
2022-11-14T09:29:31.888Z,17.17
2022-11-14T09:32:17.371Z,18.05
2022-11-14T09:35:03.330Z,18.05
2022-11-14T09:37:48.697Z,20.77
2022-11-14T09:40:40.880Z,18.33
2022-11-14T09:43:52.261Z,33.70
2022-11-14T09:46:47.519Z,26.13
2022-11-14T09:49:40.209Z,20.02
2022-11-14T09:52:58.632Z,19.08
2022-11-14T09:55:44.202Z,20.65
2022-11-14T09:58:29.963Z,20.05
2022-11-14T10:01:37.955Z,17.98
2022-11-14T10:04:54.302Z,16.25
2022-11-14T10:08:04.337Z,20.98
2022-11-14T10:11:06.940Z,20.02
2022-11-14T10:14:23.322Z,22.13
2022-11-14T10:17:30.242Z,20.83
2022-11-14T10:20:35.189Z,21.42
2022-11-14T10:23:32.679Z,19.95
2022-11-14T10:26:30.375Z,18.40
2022-11-14T10:29:48.350Z,19.88
2022-11-14T10:36:04.752Z,17.98
2022-11-14T10:38:50.216Z,20.38
2022-11-14T10:41:56.302Z,19.23
2022-11-14T10:45:24.821Z,16.10
2022-11-14T10:50:59.671Z,16.33
2022-11-14T10:54:00.630Z,16.48
2022-11-14T10:56:51.657Z,14.98
2022-11-14T10:59:37.390Z,16.65
2022-11-14T11:02:23.114Z,15.98
2022-11-14T11:05:17.795Z,17.23
2022-11-14T11:08:42.576Z,16.73
2022-11-14T11:11:31.940Z,17.40
2022-11-14T11:14:19.236Z,17.15
2022-11-14T11:17:20.751Z,17.23
2022-11-14T11:20:36.920Z,17.42
2022-11-14T11:23:26.244Z,16.10
2022-11-14T11:26:25.158Z,14.48
2022-11-14T11:29:10.553Z,16.80
2022-11-14T11:31:58.519Z,16.63
2022-11-14T11:34:44.698Z,17.42
2022-11-14T11:37:56.026Z,18.48
2022-11-14T11:40:44.459Z,18.52
2022-11-14T11:43:40.449Z,17.70
2022-11-14T11:46:32.177Z,20.77
2022-11-14T11:49:30.952Z,17.77
2022-11-14T11:52:40.767Z,17.63
2022-11-14T11:55:34.424Z,18.15
2022-11-14T11:58:25.450Z,19.45
2022-11-14T12:01:15.153Z,18.90
2022-11-14T12:04:01.725Z,16.40
2022-11-14T12:06:58.517Z,19.25
2022-11-14T12:10:09.959Z,18.75
2022-11-14T12:12:57.595Z,21.80
2022-11-14T12:15:57.828Z,18.52
2022-11-14T12:18:55.054Z,29.35
2022-11-14T12:21:41.577Z,35.13
2022-11-14T12:24:44.761Z,27.02
2022-11-14T12:27:49.945Z,22.48
2022-11-14T12:30:39.454Z,22.63
2022-11-14T12:33:27.849Z,23.40
2022-11-14T12:36:13.974Z,20.65
2022-11-14T12:39:01.305Z,22.30
2022-11-14T12:41:46.718Z,21.98
2022-11-14T12:44:35.653Z,22.17
2022-11-14T12:47:27.995Z,21.10
2022-11-14T12:50:39.579Z,23.52
2022-11-14T12:53:37.007Z,20.50
2022-11-14T12:56:30.547Z,19.35
2022-11-14T12:59:26.626Z,17.85
2022-11-14T13:02:22.328Z,19.40
2022-11-14T13:05:33.210Z,18.27
2022-11-14T13:09:03.019Z,16.48
2022-11-14T13:12:07.595Z,19.35
2022-11-14T13:15:16.130Z,15.63
2022-11-14T13:18:39.421Z,16.38
2022-11-14T13:21:46.243Z,18.23
2022-11-14T13:25:01.177Z,17.67
2022-11-14T13:31:15.877Z,13.20
2022-11-14T13:34:22.368Z,14.63
2022-11-14T13:37:19.954Z,11.55
2022-11-14T13:40:13.931Z,15.10
2022-11-14T13:43:24.703Z,13.45
2022-11-14T13:46:32.926Z,15.93
2022-11-14T13:52:23.442Z,13.50
2022-11-14T13:55:17.968Z,12.18
2022-11-14T13:58:23.716Z,12.73
2022-11-14T14:01:22.332Z,10.25
2022-11-14T14:04:45.530Z,14.77
2022-11-14T14:07:58.893Z,10.68
2022-11-14T14:11:12.816Z,10.10
2022-11-14T14:14:37.820Z,10.65
2022-11-14T14:17:45.331Z,10.82
2022-11-14T14:20:44.966Z,8.55
2022-11-14T14:24:05.439Z,10.13
2022-11-14T14:27:00.853Z,12.40
2022-11-14T14:30:09.586Z,7.55
2022-11-14T14:33:07.116Z,6.93
2022-11-14T14:35:54.553Z,8.75
2022-11-14T14:38:40.316Z,6.40
2022-11-14T14:41:30.829Z,9.55
2022-11-14T14:44:26.866Z,8.15
2022-11-14T14:47:18.341Z,6.57
2022-11-14T14:50:08.565Z,6.95
2022-11-14T14:52:59.389Z,7.57
2022-11-14T14:55:54.198Z,7.30
2022-11-14T14:58:39.500Z,7.05
2022-11-14T15:01:34.157Z,6.65
2022-11-14T15:04:22.381Z,6.10
2022-11-14T15:07:22.430Z,6.90
2022-11-14T15:10:08.660Z,6.70
2022-11-14T15:12:54.570Z,7.13
2022-11-14T15:15:40.043Z,6.53
2022-11-14T15:18:33.157Z,7.75
2022-11-14T15:21:24.604Z,5.53
2022-11-14T15:24:20.029Z,5.75
2022-11-14T15:27:13.936Z,6.30
2022-11-14T15:30:04.677Z,5.63
2022-11-14T15:32:55.150Z,5.32
2022-11-14T15:35:41.302Z,4.70
2022-11-14T15:38:43.441Z,5.90
2022-11-14T15:41:32.304Z,4.07
2022-11-14T15:44:32.160Z,4.88
2022-11-14T15:47:29.518Z,5.80
2022-11-14T15:50:14.763Z,5.75
2022-11-14T15:53:06.693Z,6.07
2022-11-14T15:55:52.232Z,6.55
2022-11-14T15:58:37.709Z,6.50
2022-11-14T16:01:27.663Z,7.43
2022-11-14T16:04:32.693Z,6.40
2022-11-14T16:07:18.566Z,6.03
2022-11-14T16:10:06.448Z,6.05
2022-11-14T16:12:52.815Z,5.55
2022-11-14T16:15:38.650Z,5.50
2022-11-14T16:18:24.478Z,6.32
2022-11-14T16:21:16.296Z,4.75
2022-11-14T16:24:01.776Z,4.80
2022-11-14T16:26:47.740Z,4.85
2022-11-14T16:29:33.184Z,4.65
2022-11-14T16:32:18.982Z,5.57
2022-11-14T16:35:04.623Z,5.50
2022-11-14T16:37:51.323Z,5.32
2022-11-14T16:40:36.685Z,5.60
2022-11-14T16:43:22.522Z,5.93
2022-11-14T16:46:09.563Z,5.80
2022-11-14T16:48:55.416Z,6.15
2022-11-14T16:51:50.752Z,5.55
2022-11-14T16:54:36.836Z,5.25
2022-11-14T16:57:22.327Z,7.22
2022-11-14T17:00:10.866Z,8.63
2022-11-14T17:02:56.419Z,18.30
2022-11-14T17:05:46.922Z,25.88
2022-11-14T17:08:32.222Z,24.25
2022-11-14T17:11:17.868Z,21.70
2022-11-14T17:14:03.539Z,17.15
2022-11-14T17:16:48.901Z,19.45
2022-11-14T17:19:34.541Z,20.88
2022-11-14T17:22:20.169Z,20.13
2022-11-14T17:25:05.890Z,17.58
2022-11-14T17:27:51.946Z,16.83
2022-11-14T17:30:41.827Z,15.77
2022-11-14T17:33:28.373Z,14.38
2022-11-14T17:36:14.267Z,14.40
2022-11-14T17:38:59.610Z,13.05
2022-11-14T17:41:45.268Z,14.95
2022-11-14T17:44:30.646Z,16.17
2022-11-14T17:47:16.128Z,15.55
2022-11-14T17:50:01.913Z,16.83
2022-11-14T17:52:47.203Z,12.20
2022-11-14T17:55:33.087Z,13.73
2022-11-14T17:58:18.290Z,15.60
2022-11-14T18:01:13.105Z,15.07
2022-11-14T18:04:04.547Z,18.75
2022-11-14T18:06:52.167Z,13.07
2022-11-14T18:09:37.671Z,16.52
2022-11-14T18:12:22.943Z,13.07
2022-11-14T18:15:08.895Z,13.70
2022-11-14T18:17:54.420Z,16.50
2022-11-14T18:20:39.946Z,14.77
2022-11-14T18:23:25.675Z,16.63
2022-11-14T18:26:19.382Z,14.43
2022-11-14T18:29:04.656Z,12.35
2022-11-14T18:31:50.251Z,16.20
2022-11-14T18:34:40.785Z,13.38
2022-11-14T18:37:26.658Z,12.00
2022-11-14T18:40:16.508Z,14.32
2022-11-14T18:43:02.245Z,20.17
2022-11-14T18:45:47.876Z,14.85
2022-11-14T18:48:33.668Z,14.65
2022-11-14T18:51:22.042Z,20.60
2022-11-14T18:54:12.946Z,24.02
2022-11-14T18:56:58.681Z,20.67
2022-11-14T18:59:44.119Z,19.05
2022-11-14T19:02:29.657Z,18.50
2022-11-14T19:05:15.150Z,18.40
2022-11-14T19:08:00.512Z,16.17
2022-11-14T19:41:22.652Z,22.42
2022-11-14T19:43:51.521Z,25.77
2022-11-14T19:46:37.204Z,22.70
2022-11-14T19:49:22.374Z,21.42
2022-11-14T19:52:08.404Z,20.05
2022-11-14T19:54:54.405Z,18.60
2022-11-14T19:57:39.927Z,18.58
2022-11-14T20:00:26.165Z,18.13
2022-11-14T20:03:11.910Z,19.70
2022-11-14T20:05:57.928Z,19.55
2022-11-14T20:08:44.040Z,17.05
2022-11-14T20:11:30.703Z,20.63
2022-11-14T20:14:16.977Z,18.52
2022-11-14T20:17:02.497Z,19.42
2022-11-14T20:19:48.262Z,17.45
2022-11-14T20:22:33.792Z,18.98
2022-11-14T20:25:19.788Z,19.88
2022-11-14T20:28:08.142Z,22.77
2022-11-14T20:30:53.732Z,21.50
2022-11-14T20:33:42.389Z,29.38
2022-11-14T20:36:38.953Z,28.67
2022-11-14T20:39:29.845Z,25.17
2022-11-14T20:42:15.152Z,24.77
2022-11-14T20:45:00.780Z,21.83
2022-11-14T20:47:46.079Z,19.50
2022-11-14T20:50:31.751Z,18.75
2022-11-14T20:53:17.472Z,19.27
2022-11-14T20:56:04.138Z,23.30
2022-11-14T20:58:53.506Z,23.42
2022-11-14T21:01:43.426Z,20.20
2022-11-14T21:04:29.464Z,19.67
2022-11-14T21:07:15.315Z,16.73
2022-11-14T21:10:19.387Z,25.50
2022-11-14T21:13:26.809Z,22.90
2022-11-14T21:16:15.875Z,22.42
2022-11-14T21:19:02.217Z,23.15
2022-11-14T21:21:47.693Z,20.33
2022-11-14T21:24:38.379Z,18.90
2022-11-14T21:27:24.998Z,18.10
2022-11-14T21:30:10.985Z,17.38
2022-11-14T21:32:56.381Z,18.67
2022-11-14T21:35:41.921Z,19.88
2022-11-14T21:38:27.588Z,19.98
2022-11-14T21:41:15.649Z,20.08
2022-11-14T21:44:03.480Z,19.95
2022-11-14T21:46:49.747Z,25.30
2022-11-14T21:49:35.318Z,22.67
2022-11-14T21:52:20.942Z,22.85
2022-11-14T21:55:07.176Z,24.17
2022-11-14T21:57:55.888Z,21.08
2022-11-14T22:00:42.291Z,19.92
2022-11-14T22:03:46.156Z,18.25
2022-11-14T22:06:31.499Z,18.85
2022-11-14T22:09:17.082Z,20.25
2022-11-14T22:12:03.031Z,22.17
2022-11-14T22:14:48.276Z,21.50
2022-11-14T22:17:33.859Z,20.75
2022-11-14T22:20:19.598Z,23.80
2022-11-14T22:23:04.815Z,22.17
2022-11-14T22:25:58.117Z,23.00
2022-11-14T22:28:43.528Z,24.33
2022-11-14T22:31:29.005Z,26.27
2022-11-14T22:34:14.653Z,23.30
2022-11-14T22:37:00.216Z,23.45
2022-11-14T22:39:45.776Z,26.35
2022-11-14T22:42:31.352Z,27.23
2022-11-14T22:45:16.933Z,25.52
2022-11-14T22:48:02.550Z,20.60
2022-11-14T22:50:48.429Z,21.40
2022-11-14T22:53:37.162Z,17.85
2022-11-14T22:56:28.837Z,18.33
2022-11-14T22:59:14.699Z,16.90
2022-11-14T23:02:00.300Z,13.73
2022-11-14T23:04:45.882Z,11.38
2022-11-14T23:07:31.517Z,9.80
2022-11-14T23:10:17.161Z,10.65
2022-11-14T23:13:03.371Z,8.88
2022-11-14T23:15:49.070Z,9.38
2022-11-14T23:18:34.729Z,7.13
2022-11-14T23:21:23.709Z,9.85
2022-11-14T23:24:13.445Z,5.90
2022-11-14T23:26:58.738Z,5.72
2022-11-14T23:29:44.408Z,4.93
2022-11-14T23:32:30.647Z,4.45
2022-11-14T23:35:16.483Z,4.13
2022-11-14T23:38:05.023Z,3.92
2022-11-14T23:40:55.480Z,4.60
2022-11-14T23:43:41.097Z,3.35
2022-11-14T23:46:26.927Z,3.25
2022-11-14T23:49:12.819Z,2.97
2022-11-14T23:51:58.309Z,2.30
2022-11-14T23:54:43.795Z,2.30
2022-11-14T23:57:30.853Z,2.15
